sensor_id;sensor_type;location;lat;lon;timestamp;temperature;humidity
54202;DHT22;40108;53.152;5.844;2023-02-28T00:00:12;3.90;89.50
54202;DHT22;40108;53.152;5.844;2023-02-28T00:02:39;3.90;89.50
54202;DHT22;40108;53.152;5.844;2023-02-28T00:05:07;3.90;89.50
54202;DHT22;40108;53.152;5.844;2023-02-28T00:07:33;3.90;89.50
54202;DHT22;40108;53.152;5.844;2023-02-28T00:09:59;3.90;89.60
54202;DHT22;40108;53.152;5.844;2023-02-28T00:12:26;3.90;89.60
54202;DHT22;40108;53.152;5.844;2023-02-28T00:14:52;3.90;89.60
54202;DHT22;40108;53.152;5.844;2023-02-28T00:17:18;3.90;89.60
54202;DHT22;40108;53.152;5.844;2023-02-28T00:19:50;3.80;89.50
54202;DHT22;40108;53.152;5.844;2023-02-28T00:22:18;3.80;89.60
54202;DHT22;40108;53.152;5.844;2023-02-28T00:24:44;3.80;89.60
54202;DHT22;40108;53.152;5.844;2023-02-28T00:27:10;3.80;89.60
54202;DHT22;40108;53.152;5.844;2023-02-28T00:29:36;3.80;89.60
54202;DHT22;40108;53.152;5.844;2023-02-28T00:32:02;3.80;89.70
54202;DHT22;40108;53.152;5.844;2023-02-28T00:34:28;3.70;89.70
54202;DHT22;40108;53.152;5.844;2023-02-28T00:36:54;3.70;89.90
54202;DHT22;40108;53.152;5.844;2023-02-28T00:39:21;3.70;90.00
54202;DHT22;40108;53.152;5.844;2023-02-28T00:41:47;3.80;90.10
54202;DHT22;40108;53.152;5.844;2023-02-28T00:44:12;3.80;90.20
54202;DHT22;40108;53.152;5.844;2023-02-28T00:46:38;3.80;90.20
54202;DHT22;40108;53.152;5.844;2023-02-28T00:49:04;3.80;90.30
54202;DHT22;40108;53.152;5.844;2023-02-28T00:51:29;3.80;90.40
54202;DHT22;40108;53.152;5.844;2023-02-28T00:53:55;3.80;90.40
54202;DHT22;40108;53.152;5.844;2023-02-28T00:56:21;3.80;90.40
54202;DHT22;40108;53.152;5.844;2023-02-28T00:58:47;3.80;90.50
54202;DHT22;40108;53.152;5.844;2023-02-28T01:01:12;3.80;90.50
54202;DHT22;40108;53.152;5.844;2023-02-28T01:03:38;3.80;90.50
54202;DHT22;40108;53.152;5.844;2023-02-28T01:06:04;3.80;90.60
54202;DHT22;40108;53.152;5.844;2023-02-28T01:08:30;3.80;90.60
54202;DHT22;40108;53.152;5.844;2023-02-28T01:10:56;3.80;90.60
54202;DHT22;40108;53.152;5.844;2023-02-28T01:13:22;3.80;90.60
54202;DHT22;40108;53.152;5.844;2023-02-28T01:15:54;3.80;90.60
54202;DHT22;40108;53.152;5.844;2023-02-28T01:18:21;3.90;90.60
54202;DHT22;40108;53.152;5.844;2023-02-28T01:20:47;3.90;90.60
54202;DHT22;40108;53.152;5.844;2023-02-28T01:23:13;3.90;90.60
54202;DHT22;40108;53.152;5.844;2023-02-28T01:25:39;3.90;90.70
54202;DHT22;40108;53.152;5.844;2023-02-28T01:28:05;4.00;90.70
54202;DHT22;40108;53.152;5.844;2023-02-28T01:30:32;4.00;90.70
54202;DHT22;40108;53.152;5.844;2023-02-28T01:32:58;4.00;90.70
54202;DHT22;40108;53.152;5.844;2023-02-28T01:35:24;4.00;90.70
54202;DHT22;40108;53.152;5.844;2023-02-28T01:37:49;4.00;90.60
54202;DHT22;40108;53.152;5.844;2023-02-28T01:40:15;4.00;90.60
54202;DHT22;40108;53.152;5.844;2023-02-28T01:42:41;4.00;90.60
54202;DHT22;40108;53.152;5.844;2023-02-28T01:45:25;4.00;90.60
54202;DHT22;40108;53.152;5.844;2023-02-28T01:47:55;4.00;90.60
54202;DHT22;40108;53.152;5.844;2023-02-28T01:50:25;4.00;90.60
54202;DHT22;40108;53.152;5.844;2023-02-28T01:52:55;4.00;90.50
54202;DHT22;40108;53.152;5.844;2023-02-28T01:55:23;4.00;90.50
54202;DHT22;40108;53.152;5.844;2023-02-28T01:57:56;4.00;90.50
54202;DHT22;40108;53.152;5.844;2023-02-28T02:00:27;3.90;90.60
54202;DHT22;40108;53.152;5.844;2023-02-28T02:02:57;3.90;90.60
54202;DHT22;40108;53.152;5.844;2023-02-28T02:05:25;3.90;90.70
54202;DHT22;40108;53.152;5.844;2023-02-28T02:07:57;3.90;90.80
54202;DHT22;40108;53.152;5.844;2023-02-28T02:11:05;4.00;90.80
54202;DHT22;40108;53.152;5.844;2023-02-28T02:16:34;4.00;90.80
54202;DHT22;40108;53.152;5.844;2023-02-28T02:28:10;4.10;91.00
54202;DHT22;40108;53.152;5.844;2023-02-28T02:34:02;4.10;91.00
54202;DHT22;40108;53.152;5.844;2023-02-28T02:36:42;4.10;91.00
54202;DHT22;40108;53.152;5.844;2023-02-28T02:39:27;4.10;91.00
54202;DHT22;40108;53.152;5.844;2023-02-28T02:41:58;4.10;91.00
54202;DHT22;40108;53.152;5.844;2023-02-28T02:44:34;4.10;91.00
54202;DHT22;40108;53.152;5.844;2023-02-28T02:47:08;4.10;91.00
54202;DHT22;40108;53.152;5.844;2023-02-28T02:49:37;4.10;91.10
54202;DHT22;40108;53.152;5.844;2023-02-28T02:52:06;4.10;91.00
54202;DHT22;40108;53.152;5.844;2023-02-28T02:54:40;4.10;91.00
54202;DHT22;40108;53.152;5.844;2023-02-28T02:57:10;4.20;91.10
54202;DHT22;40108;53.152;5.844;2023-02-28T02:59:39;4.20;91.20
54202;DHT22;40108;53.152;5.844;2023-02-28T03:02:09;4.20;91.20
54202;DHT22;40108;53.152;5.844;2023-02-28T03:04:42;4.20;91.20
54202;DHT22;40108;53.152;5.844;2023-02-28T03:07:09;4.20;91.20
54202;DHT22;40108;53.152;5.844;2023-02-28T03:09:35;4.20;91.30
54202;DHT22;40108;53.152;5.844;2023-02-28T03:12:06;4.20;91.30
54202;DHT22;40108;53.152;5.844;2023-02-28T03:25:51;4.20;91.40
54202;DHT22;40108;53.152;5.844;2023-02-28T03:28:43;4.20;91.40
54202;DHT22;40108;53.152;5.844;2023-02-28T03:31:32;4.20;91.40
54202;DHT22;40108;53.152;5.844;2023-02-28T03:34:04;4.20;91.50
54202;DHT22;40108;53.152;5.844;2023-02-28T03:36:38;4.20;91.50
54202;DHT22;40108;53.152;5.844;2023-02-28T03:39:20;4.20;91.50
54202;DHT22;40108;53.152;5.844;2023-02-28T03:41:59;4.20;91.50
54202;DHT22;40108;53.152;5.844;2023-02-28T03:44:43;4.20;91.50
54202;DHT22;40108;53.152;5.844;2023-02-28T03:47:24;4.20;91.50
54202;DHT22;40108;53.152;5.844;2023-02-28T03:49:55;4.20;91.30
54202;DHT22;40108;53.152;5.844;2023-02-28T03:52:27;4.30;91.40
54202;DHT22;40108;53.152;5.844;2023-02-28T03:54:56;4.30;91.50
54202;DHT22;40108;53.152;5.844;2023-02-28T03:57:39;4.30;91.50
54202;DHT22;40108;53.152;5.844;2023-02-28T04:00:10;4.30;91.60
54202;DHT22;40108;53.152;5.844;2023-02-28T04:02:37;4.30;91.60
54202;DHT22;40108;53.152;5.844;2023-02-28T04:05:06;4.30;91.70
54202;DHT22;40108;53.152;5.844;2023-02-28T04:07:31;4.30;91.80
54202;DHT22;40108;53.152;5.844;2023-02-28T04:09:58;4.30;91.80
54202;DHT22;40108;53.152;5.844;2023-02-28T04:12:24;4.30;91.80
54202;DHT22;40108;53.152;5.844;2023-02-28T04:14:50;4.30;92.40
54202;DHT22;40108;53.152;5.844;2023-02-28T04:17:16;4.30;92.60
54202;DHT22;40108;53.152;5.844;2023-02-28T04:19:42;4.40;92.50
54202;DHT22;40108;53.152;5.844;2023-02-28T04:22:09;4.40;92.40
54202;DHT22;40108;53.152;5.844;2023-02-28T04:24:35;4.40;92.40
54202;DHT22;40108;53.152;5.844;2023-02-28T04:27:01;4.40;92.50
54202;DHT22;40108;53.152;5.844;2023-02-28T04:29:29;4.50;92.60
54202;DHT22;40108;53.152;5.844;2023-02-28T04:31:56;4.50;92.50
54202;DHT22;40108;53.152;5.844;2023-02-28T04:34:25;4.50;92.60
54202;DHT22;40108;53.152;5.844;2023-02-28T04:36:52;4.60;92.60
54202;DHT22;40108;53.152;5.844;2023-02-28T04:39:21;4.60;92.50
54202;DHT22;40108;53.152;5.844;2023-02-28T04:41:47;4.60;92.70
54202;DHT22;40108;53.152;5.844;2023-02-28T04:44:13;4.70;92.80
54202;DHT22;40108;53.152;5.844;2023-02-28T04:46:39;4.70;92.80
54202;DHT22;40108;53.152;5.844;2023-02-28T04:49:05;4.70;92.80
54202;DHT22;40108;53.152;5.844;2023-02-28T04:51:31;4.70;92.80
54202;DHT22;40108;53.152;5.844;2023-02-28T04:53:57;4.70;92.90
54202;DHT22;40108;53.152;5.844;2023-02-28T04:56:22;4.70;93.20
54202;DHT22;40108;53.152;5.844;2023-02-28T04:58:49;4.80;93.10
54202;DHT22;40108;53.152;5.844;2023-02-28T05:01:27;4.80;93.00
54202;DHT22;40108;53.152;5.844;2023-02-28T05:03:56;4.80;92.90
54202;DHT22;40108;53.152;5.844;2023-02-28T05:06:23;4.80;92.90
54202;DHT22;40108;53.152;5.844;2023-02-28T05:08:49;4.80;93.00
54202;DHT22;40108;53.152;5.844;2023-02-28T05:13:44;4.80;93.20
54202;DHT22;40108;53.152;5.844;2023-02-28T05:16:10;4.90;93.20
54202;DHT22;40108;53.152;5.844;2023-02-28T05:18:36;4.90;93.10
54202;DHT22;40108;53.152;5.844;2023-02-28T05:21:02;4.90;93.20
54202;DHT22;40108;53.152;5.844;2023-02-28T05:23:29;4.90;93.30
54202;DHT22;40108;53.152;5.844;2023-02-28T05:25:55;5.00;93.30
54202;DHT22;40108;53.152;5.844;2023-02-28T05:28:21;4.90;93.30
54202;DHT22;40108;53.152;5.844;2023-02-28T05:30:47;4.90;93.30
54202;DHT22;40108;53.152;5.844;2023-02-28T05:33:13;4.90;93.60
54202;DHT22;40108;53.152;5.844;2023-02-28T05:35:40;5.00;94.00
54202;DHT22;40108;53.152;5.844;2023-02-28T05:38:07;4.90;93.90
54202;DHT22;40108;53.152;5.844;2023-02-28T05:40:33;4.80;93.60
54202;DHT22;40108;53.152;5.844;2023-02-28T05:42:58;4.70;93.60
54202;DHT22;40108;53.152;5.844;2023-02-28T05:45:24;4.70;93.60
54202;DHT22;40108;53.152;5.844;2023-02-28T05:47:53;4.50;93.80
54202;DHT22;40108;53.152;5.844;2023-02-28T05:50:19;4.40;94.30
54202;DHT22;40108;53.152;5.844;2023-02-28T05:52:52;4.30;94.10
54202;DHT22;40108;53.152;5.844;2023-02-28T05:55:18;4.30;94.20
54202;DHT22;40108;53.152;5.844;2023-02-28T05:57:44;4.20;94.30
54202;DHT22;40108;53.152;5.844;2023-02-28T06:00:10;4.10;94.20
54202;DHT22;40108;53.152;5.844;2023-02-28T06:02:38;4.00;94.30
54202;DHT22;40108;53.152;5.844;2023-02-28T06:05:04;3.90;94.30
54202;DHT22;40108;53.152;5.844;2023-02-28T06:07:29;3.80;94.50
54202;DHT22;40108;53.152;5.844;2023-02-28T06:09:55;3.70;94.70
54202;DHT22;40108;53.152;5.844;2023-02-28T06:12:21;3.60;94.90
54202;DHT22;40108;53.152;5.844;2023-02-28T06:14:46;3.50;94.90
54202;DHT22;40108;53.152;5.844;2023-02-28T06:17:12;3.40;95.10
54202;DHT22;40108;53.152;5.844;2023-02-28T06:19:38;3.30;95.20
54202;DHT22;40108;53.152;5.844;2023-02-28T06:22:04;3.20;95.40
54202;DHT22;40108;53.152;5.844;2023-02-28T06:24:30;3.20;95.40
54202;DHT22;40108;53.152;5.844;2023-02-28T06:26:57;3.10;95.60
54202;DHT22;40108;53.152;5.844;2023-02-28T06:29:24;3.10;95.70
54202;DHT22;40108;53.152;5.844;2023-02-28T06:31:50;3.00;95.60
54202;DHT22;40108;53.152;5.844;2023-02-28T06:34:16;3.00;95.60
54202;DHT22;40108;53.152;5.844;2023-02-28T06:36:42;2.90;95.60
54202;DHT22;40108;53.152;5.844;2023-02-28T06:39:09;2.80;95.60
54202;DHT22;40108;53.152;5.844;2023-02-28T06:41:35;2.80;95.60
54202;DHT22;40108;53.152;5.844;2023-02-28T06:44:04;2.80;95.70
54202;DHT22;40108;53.152;5.844;2023-02-28T06:46:31;2.70;95.70
54202;DHT22;40108;53.152;5.844;2023-02-28T06:48:57;2.70;95.80
54202;DHT22;40108;53.152;5.844;2023-02-28T06:51:23;2.70;95.90
54202;DHT22;40108;53.152;5.844;2023-02-28T06:53:50;2.70;95.90
54202;DHT22;40108;53.152;5.844;2023-02-28T06:56:17;2.70;95.80
54202;DHT22;40108;53.152;5.844;2023-02-28T06:58:47;2.60;95.80
54202;DHT22;40108;53.152;5.844;2023-02-28T07:01:14;2.60;95.90
54202;DHT22;40108;53.152;5.844;2023-02-28T07:03:40;2.50;95.80
54202;DHT22;40108;53.152;5.844;2023-02-28T07:06:06;2.50;95.90
54202;DHT22;40108;53.152;5.844;2023-02-28T07:08:33;2.40;95.90
54202;DHT22;40108;53.152;5.844;2023-02-28T07:10:59;2.40;96.00
54202;DHT22;40108;53.152;5.844;2023-02-28T07:13:25;2.50;96.10
54202;DHT22;40108;53.152;5.844;2023-02-28T07:15:59;2.40;96.10
54202;DHT22;40108;53.152;5.844;2023-02-28T07:18:25;2.40;96.20
54202;DHT22;40108;53.152;5.844;2023-02-28T07:20:51;2.40;96.20
54202;DHT22;40108;53.152;5.844;2023-02-28T07:23:17;2.40;96.30
54202;DHT22;40108;53.152;5.844;2023-02-28T07:25:43;2.30;96.30
54202;DHT22;40108;53.152;5.844;2023-02-28T07:28:09;2.30;96.40
54202;DHT22;40108;53.152;5.844;2023-02-28T07:30:35;2.20;96.40
54202;DHT22;40108;53.152;5.844;2023-02-28T07:33:00;2.20;96.50
54202;DHT22;40108;53.152;5.844;2023-02-28T07:35:26;2.20;96.50
54202;DHT22;40108;53.152;5.844;2023-02-28T07:37:52;2.20;96.60
54202;DHT22;40108;53.152;5.844;2023-02-28T07:40:17;2.20;96.70
54202;DHT22;40108;53.152;5.844;2023-02-28T07:42:44;2.20;96.70
54202;DHT22;40108;53.152;5.844;2023-02-28T07:45:10;2.20;96.70
54202;DHT22;40108;53.152;5.844;2023-02-28T07:47:40;2.20;96.80
54202;DHT22;40108;53.152;5.844;2023-02-28T07:50:08;2.20;96.80
54202;DHT22;40108;53.152;5.844;2023-02-28T07:52:36;2.20;96.80
54202;DHT22;40108;53.152;5.844;2023-02-28T07:55:02;2.20;96.80
54202;DHT22;40108;53.152;5.844;2023-02-28T07:57:28;2.20;96.80
54202;DHT22;40108;53.152;5.844;2023-02-28T07:59:54;2.20;96.90
54202;DHT22;40108;53.152;5.844;2023-02-28T08:02:19;2.20;96.90
54202;DHT22;40108;53.152;5.844;2023-02-28T08:04:45;2.20;96.90
54202;DHT22;40108;53.152;5.844;2023-02-28T08:07:13;2.20;96.90
54202;DHT22;40108;53.152;5.844;2023-02-28T08:09:40;2.20;96.90
54202;DHT22;40108;53.152;5.844;2023-02-28T08:12:06;2.20;96.90
54202;DHT22;40108;53.152;5.844;2023-02-28T08:14:33;2.20;96.90
54202;DHT22;40108;53.152;5.844;2023-02-28T08:16:58;2.30;97.00
54202;DHT22;40108;53.152;5.844;2023-02-28T08:19:24;2.30;96.90
54202;DHT22;40108;53.152;5.844;2023-02-28T08:21:50;2.30;96.90
54202;DHT22;40108;53.152;5.844;2023-02-28T08:24:15;2.30;96.90
54202;DHT22;40108;53.152;5.844;2023-02-28T08:26:41;2.30;96.90
54202;DHT22;40108;53.152;5.844;2023-02-28T08:29:07;2.30;96.90
54202;DHT22;40108;53.152;5.844;2023-02-28T08:31:32;2.30;96.90
54202;DHT22;40108;53.152;5.844;2023-02-28T08:33:58;2.30;96.80
54202;DHT22;40108;53.152;5.844;2023-02-28T08:36:25;2.30;96.90
54202;DHT22;40108;53.152;5.844;2023-02-28T08:38:52;2.40;96.90
54202;DHT22;40108;53.152;5.844;2023-02-28T08:41:17;2.40;96.90
54202;DHT22;40108;53.152;5.844;2023-02-28T08:43:43;2.40;96.90
54202;DHT22;40108;53.152;5.844;2023-02-28T08:46:12;2.40;96.90
54202;DHT22;40108;53.152;5.844;2023-02-28T08:48:39;2.40;96.90
54202;DHT22;40108;53.152;5.844;2023-02-28T08:51:09;2.40;96.80
54202;DHT22;40108;53.152;5.844;2023-02-28T08:53:36;2.40;96.80
54202;DHT22;40108;53.152;5.844;2023-02-28T08:56:06;2.40;96.80
54202;DHT22;40108;53.152;5.844;2023-02-28T08:58:32;2.40;96.80
54202;DHT22;40108;53.152;5.844;2023-02-28T09:00:59;2.50;96.80
54202;DHT22;40108;53.152;5.844;2023-02-28T09:03:26;2.60;96.80
54202;DHT22;40108;53.152;5.844;2023-02-28T09:06:01;2.60;96.80
54202;DHT22;40108;53.152;5.844;2023-02-28T09:08:29;2.60;96.80
54202;DHT22;40108;53.152;5.844;2023-02-28T09:10:58;2.70;96.80
54202;DHT22;40108;53.152;5.844;2023-02-28T09:13:25;2.70;96.70
54202;DHT22;40108;53.152;5.844;2023-02-28T09:15:52;2.80;96.80
54202;DHT22;40108;53.152;5.844;2023-02-28T09:18:18;2.80;96.80
54202;DHT22;40108;53.152;5.844;2023-02-28T09:20:44;2.90;96.70
54202;DHT22;40108;53.152;5.844;2023-02-28T09:23:12;3.00;96.70
54202;DHT22;40108;53.152;5.844;2023-02-28T09:25:38;3.00;96.60
54202;DHT22;40108;53.152;5.844;2023-02-28T09:28:09;3.00;96.60
54202;DHT22;40108;53.152;5.844;2023-02-28T09:30:36;3.10;96.60
54202;DHT22;40108;53.152;5.844;2023-02-28T09:33:03;3.20;96.60
54202;DHT22;40108;53.152;5.844;2023-02-28T09:35:29;3.20;96.60
54202;DHT22;40108;53.152;5.844;2023-02-28T09:37:56;3.30;96.50
54202;DHT22;40108;53.152;5.844;2023-02-28T09:40:24;3.30;96.50
54202;DHT22;40108;53.152;5.844;2023-02-28T09:42:53;3.30;96.40
54202;DHT22;40108;53.152;5.844;2023-02-28T09:45:36;3.30;96.20
54202;DHT22;40108;53.152;5.844;2023-02-28T09:48:13;3.30;96.10
54202;DHT22;40108;53.152;5.844;2023-02-28T09:50:48;3.30;96.00
54202;DHT22;40108;53.152;5.844;2023-02-28T09:53:29;3.30;96.00
54202;DHT22;40108;53.152;5.844;2023-02-28T09:56:03;3.40;96.00
54202;DHT22;40108;53.152;5.844;2023-02-28T09:58:57;3.40;95.90
54202;DHT22;40108;53.152;5.844;2023-02-28T10:01:31;3.50;95.90
54202;DHT22;40108;53.152;5.844;2023-02-28T10:06:49;3.70;95.90
54202;DHT22;40108;53.152;5.844;2023-02-28T10:09:23;3.90;95.90
54202;DHT22;40108;53.152;5.844;2023-02-28T10:11:56;4.00;95.90
54202;DHT22;40108;53.152;5.844;2023-02-28T10:14:26;4.10;95.50
54202;DHT22;40108;53.152;5.844;2023-02-28T10:16:58;4.10;95.40
54202;DHT22;40108;53.152;5.844;2023-02-28T10:19:33;4.20;95.30
54202;DHT22;40108;53.152;5.844;2023-02-28T10:22:09;4.30;95.20
54202;DHT22;40108;53.152;5.844;2023-02-28T10:24:43;4.50;95.10
54202;DHT22;40108;53.152;5.844;2023-02-28T10:27:17;4.70;95.10
54202;DHT22;40108;53.152;5.844;2023-02-28T10:29:46;4.90;94.90
54202;DHT22;40108;53.152;5.844;2023-02-28T10:32:25;5.20;94.60
54202;DHT22;40108;53.152;5.844;2023-02-28T10:35:17;5.60;94.00
54202;DHT22;40108;53.152;5.844;2023-02-28T10:37:47;6.40;94.50
54202;DHT22;40108;53.152;5.844;2023-02-28T10:45:24;8.10;89.90
54202;DHT22;40108;53.152;5.844;2023-02-28T10:53:32;9.20;82.80
54202;DHT22;40108;53.152;5.844;2023-02-28T10:59:26;10.00;79.00
54202;DHT22;40108;53.152;5.844;2023-02-28T11:01:53;10.00;74.00
54202;DHT22;40108;53.152;5.844;2023-02-28T11:07:00;9.70;69.60
54202;DHT22;40108;53.152;5.844;2023-02-28T11:09:30;9.70;70.00
54202;DHT22;40108;53.152;5.844;2023-02-28T11:11:59;10.10;69.80
54202;DHT22;40108;53.152;5.844;2023-02-28T11:14:30;10.00;66.50
54202;DHT22;40108;53.152;5.844;2023-02-28T11:17:02;10.00;64.40
54202;DHT22;40108;53.152;5.844;2023-02-28T11:19:40;9.90;65.60
54202;DHT22;40108;53.152;5.844;2023-02-28T11:22:06;10.20;65.80
54202;DHT22;40108;53.152;5.844;2023-02-28T11:24:37;10.40;64.50
54202;DHT22;40108;53.152;5.844;2023-02-28T11:27:11;10.20;63.50
54202;DHT22;40108;53.152;5.844;2023-02-28T11:29:47;9.80;64.90
54202;DHT22;40108;53.152;5.844;2023-02-28T11:34:42;10.10;65.90
54202;DHT22;40108;53.152;5.844;2023-02-28T11:37:15;10.40;65.20
54202;DHT22;40108;53.152;5.844;2023-02-28T11:39:42;10.40;63.00
54202;DHT22;40108;53.152;5.844;2023-02-28T11:42:16;10.60;65.10
54202;DHT22;40108;53.152;5.844;2023-02-28T11:53:05;11.00;59.40
54202;DHT22;40108;53.152;5.844;2023-02-28T11:56:01;11.00;59.60
54202;DHT22;40108;53.152;5.844;2023-02-28T12:15:21;11.70;55.90
54202;DHT22;40108;53.152;5.844;2023-02-28T12:28:19;10.80;54.30
54202;DHT22;40108;53.152;5.844;2023-02-28T12:31:26;10.40;55.10
54202;DHT22;40108;53.152;5.844;2023-02-28T12:33:59;10.40;57.40
54202;DHT22;40108;53.152;5.844;2023-02-28T12:36:27;10.60;56.60
54202;DHT22;40108;53.152;5.844;2023-02-28T12:38:58;11.10;59.30
54202;DHT22;40108;53.152;5.844;2023-02-28T12:41:56;11.40;56.90
54202;DHT22;40108;53.152;5.844;2023-02-28T12:44:37;11.80;58.00
54202;DHT22;40108;53.152;5.844;2023-02-28T12:47:10;12.00;54.80
54202;DHT22;40108;53.152;5.844;2023-02-28T12:49:49;11.80;52.90
54202;DHT22;40108;53.152;5.844;2023-02-28T12:53:02;11.70;54.80
54202;DHT22;40108;53.152;5.844;2023-02-28T12:58:43;11.20;53.40
54202;DHT22;40108;53.152;5.844;2023-02-28T13:09:35;11.20;56.80
54202;DHT22;40108;53.152;5.844;2023-02-28T13:12:01;11.20;58.50
54202;DHT22;40108;53.152;5.844;2023-02-28T13:25:01;10.00;56.90
54202;DHT22;40108;53.152;5.844;2023-02-28T13:27:37;9.60;58.50
54202;DHT22;40108;53.152;5.844;2023-02-28T13:35:46;8.60;61.30
54202;DHT22;40108;53.152;5.844;2023-02-28T13:38:16;8.20;62.00
54202;DHT22;40108;53.152;5.844;2023-02-28T13:40:42;8.00;62.80
54202;DHT22;40108;53.152;5.844;2023-02-28T13:43:09;7.90;64.20
54202;DHT22;40108;53.152;5.844;2023-02-28T13:45:34;7.90;64.80
54202;DHT22;40108;53.152;5.844;2023-02-28T13:48:24;7.70;64.40
54202;DHT22;40108;53.152;5.844;2023-02-28T13:50:52;7.70;65.30
54202;DHT22;40108;53.152;5.844;2023-02-28T13:53:37;7.80;65.80
54202;DHT22;40108;53.152;5.844;2023-02-28T13:56:23;7.90;66.70
54202;DHT22;40108;53.152;5.844;2023-02-28T13:59:06;7.90;66.40
54202;DHT22;40108;53.152;5.844;2023-02-28T14:01:50;8.00;66.50
54202;DHT22;40108;53.152;5.844;2023-02-28T14:07:18;8.00;67.50
54202;DHT22;40108;53.152;5.844;2023-02-28T14:09:51;8.10;67.30
54202;DHT22;40108;53.152;5.844;2023-02-28T14:18:42;7.90;67.30
54202;DHT22;40108;53.152;5.844;2023-02-28T14:21:21;7.90;67.40
54202;DHT22;40108;53.152;5.844;2023-02-28T14:32:27;7.60;68.30
54202;DHT22;40108;53.152;5.844;2023-02-28T14:34:58;7.50;68.10
54202;DHT22;40108;53.152;5.844;2023-02-28T14:37:30;7.40;68.60
54202;DHT22;40108;53.152;5.844;2023-02-28T14:39:59;7.30;68.90
54202;DHT22;40108;53.152;5.844;2023-02-28T14:42:34;7.20;68.50
54202;DHT22;40108;53.152;5.844;2023-02-28T14:45:01;7.20;68.80
54202;DHT22;40108;53.152;5.844;2023-02-28T14:47:33;7.10;69.20
54202;DHT22;40108;53.152;5.844;2023-02-28T14:50:02;7.10;69.10
54202;DHT22;40108;53.152;5.844;2023-02-28T14:52:32;7.00;69.80
54202;DHT22;40108;53.152;5.844;2023-02-28T14:55:03;6.90;70.00
54202;DHT22;40108;53.152;5.844;2023-02-28T14:57:35;6.90;70.20
54202;DHT22;40108;53.152;5.844;2023-02-28T15:00:16;6.90;70.30
54202;DHT22;40108;53.152;5.844;2023-02-28T15:02:43;6.80;70.40
54202;DHT22;40108;53.152;5.844;2023-02-28T15:07:47;6.70;70.60
54202;DHT22;40108;53.152;5.844;2023-02-28T15:10:18;6.70;70.80
54202;DHT22;40108;53.152;5.844;2023-02-28T15:13:07;6.70;70.50
54202;DHT22;40108;53.152;5.844;2023-02-28T15:18:15;6.70;70.70
54202;DHT22;40108;53.152;5.844;2023-02-28T15:20:43;6.70;70.20
54202;DHT22;40108;53.152;5.844;2023-02-28T15:23:10;6.70;71.00
54202;DHT22;40108;53.152;5.844;2023-02-28T15:25:36;6.70;71.30
54202;DHT22;40108;53.152;5.844;2023-02-28T15:28:02;6.70;71.00
54202;DHT22;40108;53.152;5.844;2023-02-28T15:30:30;6.70;71.30
54202;DHT22;40108;53.152;5.844;2023-02-28T15:33:33;6.70;70.30
54202;DHT22;40108;53.152;5.844;2023-02-28T15:36:14;6.70;70.20
54202;DHT22;40108;53.152;5.844;2023-02-28T15:38:42;6.70;68.80
54202;DHT22;40108;53.152;5.844;2023-02-28T15:41:25;6.70;69.10
54202;DHT22;40108;53.152;5.844;2023-02-28T15:47:02;6.70;68.20
54202;DHT22;40108;53.152;5.844;2023-02-28T15:49:37;6.70;69.20
54202;DHT22;40108;53.152;5.844;2023-02-28T15:52:03;6.70;69.60
54202;DHT22;40108;53.152;5.844;2023-02-28T15:54:33;6.60;69.80
54202;DHT22;40108;53.152;5.844;2023-02-28T15:57:05;6.60;70.20
54202;DHT22;40108;53.152;5.844;2023-02-28T15:59:35;6.60;70.00
54202;DHT22;40108;53.152;5.844;2023-02-28T16:02:14;6.50;70.60
54202;DHT22;40108;53.152;5.844;2023-02-28T16:07:38;6.50;70.90
54202;DHT22;40108;53.152;5.844;2023-02-28T16:10:06;6.40;71.20
54202;DHT22;40108;53.152;5.844;2023-02-28T16:12:34;6.40;71.40
54202;DHT22;40108;53.152;5.844;2023-02-28T16:15:03;6.30;71.50
54202;DHT22;40108;53.152;5.844;2023-02-28T16:17:34;6.30;71.30
54202;DHT22;40108;53.152;5.844;2023-02-28T16:20:05;6.30;71.30
54202;DHT22;40108;53.152;5.844;2023-02-28T16:22:31;6.20;70.90
54202;DHT22;40108;53.152;5.844;2023-02-28T16:24:57;6.30;70.90
54202;DHT22;40108;53.152;5.844;2023-02-28T16:27:32;6.20;71.30
54202;DHT22;40108;53.152;5.844;2023-02-28T16:29:58;6.20;71.40
54202;DHT22;40108;53.152;5.844;2023-02-28T16:32:24;6.20;71.60
54202;DHT22;40108;53.152;5.844;2023-02-28T16:34:50;6.20;71.90
54202;DHT22;40108;53.152;5.844;2023-02-28T16:37:17;6.10;72.30
54202;DHT22;40108;53.152;5.844;2023-02-28T16:39:44;6.10;72.40
54202;DHT22;40108;53.152;5.844;2023-02-28T16:42:22;6.10;72.30
54202;DHT22;40108;53.152;5.844;2023-02-28T16:44:49;6.10;72.60
54202;DHT22;40108;53.152;5.844;2023-02-28T16:47:14;6.00;72.30
54202;DHT22;40108;53.152;5.844;2023-02-28T16:49:40;6.00;72.70
54202;DHT22;40108;53.152;5.844;2023-02-28T16:52:08;5.90;73.00
54202;DHT22;40108;53.152;5.844;2023-02-28T16:54:34;5.90;73.30
54202;DHT22;40108;53.152;5.844;2023-02-28T16:57:00;5.90;73.50
54202;DHT22;40108;53.152;5.844;2023-02-28T16:59:27;5.80;73.80
54202;DHT22;40108;53.152;5.844;2023-02-28T17:01:54;5.70;74.20
54202;DHT22;40108;53.152;5.844;2023-02-28T17:04:20;5.70;75.00
54202;DHT22;40108;53.152;5.844;2023-02-28T17:06:45;5.60;75.90
54202;DHT22;40108;53.152;5.844;2023-02-28T17:09:18;5.50;76.30
54202;DHT22;40108;53.152;5.844;2023-02-28T17:11:44;5.50;78.40
54202;DHT22;40108;53.152;5.844;2023-02-28T17:14:10;5.40;77.90
54202;DHT22;40108;53.152;5.844;2023-02-28T17:16:37;5.40;78.30
54202;DHT22;40108;53.152;5.844;2023-02-28T17:19:06;5.20;79.00
54202;DHT22;40108;53.152;5.844;2023-02-28T17:21:33;5.20;79.40
54202;DHT22;40108;53.152;5.844;2023-02-28T17:24:00;5.20;79.60
54202;DHT22;40108;53.152;5.844;2023-02-28T17:26:26;5.10;79.80
54202;DHT22;40108;53.152;5.844;2023-02-28T17:28:53;5.00;80.00
54202;DHT22;40108;53.152;5.844;2023-02-28T17:31:21;4.90;80.20
54202;DHT22;40108;53.152;5.844;2023-02-28T17:33:47;4.90;80.20
54202;DHT22;40108;53.152;5.844;2023-02-28T17:36:15;4.80;80.80
54202;DHT22;40108;53.152;5.844;2023-02-28T17:38:41;4.70;81.00
54202;DHT22;40108;53.152;5.844;2023-02-28T17:41:10;4.70;81.30
54202;DHT22;40108;53.152;5.844;2023-02-28T17:43:36;4.70;81.40
54202;DHT22;40108;53.152;5.844;2023-02-28T17:46:01;4.60;81.40
54202;DHT22;40108;53.152;5.844;2023-02-28T17:48:27;4.60;81.80
54202;DHT22;40108;53.152;5.844;2023-02-28T17:50:53;4.50;81.90
54202;DHT22;40108;53.152;5.844;2023-02-28T17:53:19;4.40;81.90
54202;DHT22;40108;53.152;5.844;2023-02-28T17:55:49;4.30;82.20
54202;DHT22;40108;53.152;5.844;2023-02-28T17:58:14;4.30;82.60
54202;DHT22;40108;53.152;5.844;2023-02-28T18:00:41;4.20;83.00
54202;DHT22;40108;53.152;5.844;2023-02-28T18:03:07;4.20;83.60
54202;DHT22;40108;53.152;5.844;2023-02-28T18:05:33;4.20;83.60
54202;DHT22;40108;53.152;5.844;2023-02-28T18:08:00;4.10;83.70
54202;DHT22;40108;53.152;5.844;2023-02-28T18:10:26;4.00;84.30
54202;DHT22;40108;53.152;5.844;2023-02-28T18:12:52;3.90;84.20
54202;DHT22;40108;53.152;5.844;2023-02-28T18:15:20;3.90;84.20
54202;DHT22;40108;53.152;5.844;2023-02-28T18:17:48;3.80;84.50
54202;DHT22;40108;53.152;5.844;2023-02-28T18:20:14;3.80;84.30
54202;DHT22;40108;53.152;5.844;2023-02-28T18:22:41;3.70;85.30